Poltava, Ukraine
Current Conditions -  °F | °C
As of 6:00 PM on Thursday 23 Oct 2014 (Local Time) from UKHH Reporting Station
Clear Clear  
Wind Chill: 23°   Ceiling: Unl
Heat Index: 32°   Visibility: 6mi
Dew Point: 19°   Wind: 11mph
Humidity: 60%   Direction: 50°NE
Pressure: 30.21"   Gusts: NA
Location:  49.58°N, 34.57°E
Report Text: UKHH 231500Z 05005MPS CAVOK 00/M07 Q1023 070///65 TEMPO 06008G15MPS
Loading
Personal Weather Stations






























Interactive Weather Map New forecast layout! Learn more

10-Day Weather Forecast

Advertisements
Track Severe Weather on mobile